createdAt,value
2022-12-08T00:00:21.830Z,99318.63
2022-12-08T00:02:49.453Z,99315.16
2022-12-08T00:05:34.512Z,99312.31
2022-12-08T00:08:19.702Z,99313.72
2022-12-08T00:10:49.405Z,99305.69
2022-12-08T00:13:17.499Z,99301.91
2022-12-08T00:15:46.258Z,99301.75
2022-12-08T00:18:13.754Z,99305.66
2022-12-08T00:20:41.174Z,99309.19
2022-12-08T00:23:08.593Z,99305.59
2022-12-08T00:25:36.544Z,99305.06
2022-12-08T00:28:04.142Z,99292.06
2022-12-08T00:30:31.534Z,99294.94
2022-12-08T00:33:00.318Z,99293.94
2022-12-08T00:35:27.710Z,99286.69
2022-12-08T00:38:00.610Z,99281.44
2022-12-08T00:40:28.646Z,99276.34
2022-12-08T00:42:56.788Z,99283.97
2022-12-08T00:45:24.419Z,99281.47
2022-12-08T00:47:51.835Z,99282.72
2022-12-08T00:50:20.618Z,99286.75
2022-12-08T00:52:48.031Z,99280.25
2022-12-08T00:55:15.597Z,99285.97
2022-12-08T00:57:43.009Z,99278.97
2022-12-08T01:00:11.308Z,99274.72
2022-12-08T01:02:38.711Z,99283.56
2022-12-08T01:05:06.901Z,99281.19
2022-12-08T01:07:35.689Z,99279.50
2022-12-08T01:10:03.836Z,99276.31
2022-12-08T01:12:31.478Z,99284.06
2022-12-08T01:15:02.235Z,99272.44
2022-12-08T01:17:30.294Z,99276.56
2022-12-08T01:19:58.733Z,99278.19
2022-12-08T01:22:26.708Z,99280.53
2022-12-08T01:24:55.451Z,99272.72
2022-12-08T01:27:22.846Z,99281.53
2022-12-08T01:29:50.247Z,99287.44
2022-12-08T01:32:17.680Z,99282.34
2022-12-08T01:34:45.091Z,99277.44
2022-12-08T01:37:13.215Z,99276.16
2022-12-08T01:39:41.429Z,99276.00
2022-12-08T01:42:19.891Z,99276.66
2022-12-08T01:44:59.056Z,99278.41
2022-12-08T01:47:31.046Z,99267.72
2022-12-08T01:49:58.751Z,99273.22
2022-12-08T01:52:28.455Z,99272.94
2022-12-08T01:54:59.661Z,99269.34
2022-12-08T01:57:31.651Z,99272.31
2022-12-08T02:00:03.047Z,99271.47
2022-12-08T02:02:37.978Z,99260.47
2022-12-08T02:05:07.252Z,99257.09
2022-12-08T02:07:36.463Z,99256.59
2022-12-08T02:10:04.434Z,99243.31
2022-12-08T02:12:33.731Z,99244.81
2022-12-08T02:15:05.000Z,99244.38
2022-12-08T02:17:45.043Z,99239.47
2022-12-08T02:20:25.730Z,99238.69
2022-12-08T02:22:58.683Z,99236.56
2022-12-08T02:25:31.382Z,99233.97
2022-12-08T02:28:07.087Z,99227.78
2022-12-08T02:30:39.562Z,99220.09
2022-12-08T02:33:54.668Z,99226.84
2022-12-08T02:36:25.825Z,99227.66
2022-12-08T02:39:00.015Z,99212.09
2022-12-08T02:41:33.316Z,99207.63
2022-12-08T02:44:06.498Z,99214.28
2022-12-08T02:46:36.988Z,99219.84
2022-12-08T02:49:05.295Z,99209.03
2022-12-08T02:51:34.099Z,99215.13
2022-12-08T02:54:02.016Z,99207.19
2022-12-08T02:56:46.736Z,99210.38
2022-12-08T02:59:24.663Z,99200.22
2022-12-08T03:02:06.923Z,99208.25
2022-12-08T03:04:39.924Z,99202.22
2022-12-08T03:07:11.775Z,99198.72
2022-12-08T03:09:42.643Z,99195.38
2022-12-08T03:12:14.876Z,99188.78
2022-12-08T03:14:46.659Z,99180.25
2022-12-08T03:17:14.849Z,99167.09
2022-12-08T03:19:43.282Z,99169.66
2022-12-08T03:22:12.805Z,99168.53
2022-12-08T03:24:42.134Z,99165.84
2022-12-08T03:27:11.014Z,99167.22
2022-12-08T03:29:38.444Z,99157.09
2022-12-08T03:32:10.083Z,99153.69
2022-12-08T03:34:38.243Z,99149.47
2022-12-08T03:37:05.884Z,99143.88
2022-12-08T03:39:34.631Z,99147.81
2022-12-08T03:42:02.106Z,99151.19
2022-12-08T03:44:29.626Z,99140.69
2022-12-08T03:46:57.063Z,99125.66
2022-12-08T03:49:24.477Z,99131.22
2022-12-08T03:51:52.182Z,99127.47
2022-12-08T03:54:19.639Z,99131.16
2022-12-08T03:56:48.504Z,99118.03
2022-12-08T03:59:16.044Z,99116.00
2022-12-08T04:01:43.619Z,99118.00
2022-12-08T04:04:11.551Z,99122.22
2022-12-08T04:06:38.980Z,99113.13
2022-12-08T04:09:06.396Z,99115.25
2022-12-08T04:11:33.844Z,99120.81
2022-12-08T04:14:02.655Z,99123.66
2022-12-08T04:16:30.178Z,99116.31
2022-12-08T04:18:57.663Z,99113.81
2022-12-08T04:21:25.085Z,99106.53
2022-12-08T04:23:57.556Z,99109.75
2022-12-08T04:26:28.149Z,99096.03
2022-12-08T04:28:55.721Z,99102.56
2022-12-08T04:31:24.521Z,99094.09
2022-12-08T04:33:52.009Z,99098.34
2022-12-08T04:36:19.521Z,99099.78
2022-12-08T04:38:46.922Z,99098.59
2022-12-08T04:41:14.322Z,99095.97
2022-12-08T04:43:44.194Z,99090.88
2022-12-08T04:46:12.412Z,99093.41
2022-12-08T04:48:42.372Z,99081.25
2022-12-08T04:51:16.004Z,99082.59
2022-12-08T04:53:46.626Z,99077.63
2022-12-08T04:56:14.700Z,99082.28
2022-12-08T04:58:42.153Z,99090.47
2022-12-08T05:01:09.775Z,99085.50
2022-12-08T05:03:37.258Z,99073.81
2022-12-08T05:06:07.111Z,99076.97
2022-12-08T05:08:35.681Z,99073.81
2022-12-08T05:11:04.220Z,99080.13
2022-12-08T05:13:31.731Z,99077.41
2022-12-08T05:16:04.253Z,99073.97
2022-12-08T05:18:31.829Z,99072.91
2022-12-08T05:20:59.654Z,99071.34
2022-12-08T05:23:28.557Z,99066.81
2022-12-08T05:25:56.161Z,99063.81
2022-12-08T05:31:11.329Z,99068.41
2022-12-08T05:33:38.878Z,99071.78
2022-12-08T05:36:06.739Z,99060.44
2022-12-08T05:38:35.514Z,99069.03
2022-12-08T05:41:02.939Z,99058.34
2022-12-08T05:43:30.395Z,99062.63
2022-12-08T05:45:57.880Z,99059.78
2022-12-08T05:48:25.681Z,99069.47
2022-12-08T05:50:53.158Z,99054.16
2022-12-08T05:53:21.409Z,99057.31
2022-12-08T05:55:50.163Z,99055.72
2022-12-08T05:58:19.895Z,99053.03
2022-12-08T06:00:47.868Z,99055.66
2022-12-08T06:03:17.065Z,99047.56
2022-12-08T06:05:46.304Z,99049.03
2022-12-08T06:08:14.412Z,99046.13
2022-12-08T06:10:41.991Z,99043.78
2022-12-08T06:13:10.832Z,99045.03
2022-12-08T06:15:39.482Z,99040.50
2022-12-08T06:18:07.940Z,99039.25
2022-12-08T06:20:35.717Z,99041.63
2022-12-08T06:23:03.361Z,99038.03
2022-12-08T06:25:30.830Z,99036.84
2022-12-08T06:27:58.253Z,99042.47
2022-12-08T06:30:28.306Z,99036.19
2022-12-08T06:32:55.720Z,99037.03
2022-12-08T06:35:23.119Z,99041.63
2022-12-08T06:37:51.633Z,99037.19
2022-12-08T06:40:19.098Z,99042.81
2022-12-08T06:42:47.064Z,99036.78
2022-12-08T06:45:15.901Z,99044.47
2022-12-08T06:47:44.840Z,99034.72
2022-12-08T06:50:14.542Z,99044.03
2022-12-08T06:52:50.821Z,99036.06
2022-12-08T06:55:42.997Z,99033.66
2022-12-08T06:58:08.712Z,99035.28
2022-12-08T07:00:36.131Z,99039.88
2022-12-08T07:03:04.919Z,99038.63
2022-12-08T07:05:32.381Z,99044.84
2022-12-08T07:08:00.177Z,99042.97
2022-12-08T07:10:27.716Z,99039.22
2022-12-08T07:12:55.169Z,99040.13
2022-12-08T07:15:22.592Z,99037.88
2022-12-08T07:17:53.582Z,99042.44
2022-12-08T07:20:25.129Z,99041.38
2022-12-08T07:22:53.611Z,99041.53
2022-12-08T07:25:21.467Z,99043.28
2022-12-08T07:27:50.347Z,99044.34
2022-12-08T07:30:18.420Z,99046.63
2022-12-08T07:32:46.070Z,99045.66
2022-12-08T07:35:13.606Z,99045.16
2022-12-08T07:37:42.435Z,99045.38
2022-12-08T07:40:10.911Z,99050.00
2022-12-08T07:42:38.362Z,99050.59
2022-12-08T07:45:06.935Z,99043.91
2022-12-08T07:47:34.338Z,99050.44
2022-12-08T07:50:01.924Z,99050.28
2022-12-08T07:52:31.520Z,99042.03
2022-12-08T07:55:01.263Z,99049.75
2022-12-08T07:57:28.804Z,99051.94
2022-12-08T07:59:56.224Z,99050.84
2022-12-08T08:02:25.673Z,99054.16
2022-12-08T08:04:55.065Z,99059.84
2022-12-08T08:07:22.532Z,99050.97
2022-12-08T08:09:49.944Z,99047.56
2022-12-08T08:12:33.926Z,99049.09
2022-12-08T08:15:02.171Z,99050.91
2022-12-08T08:17:30.298Z,99045.06
2022-12-08T08:19:58.174Z,99048.66
2022-12-08T08:22:26.079Z,99050.84
2022-12-08T08:24:53.744Z,99046.84
2022-12-08T08:27:22.727Z,99053.09
2022-12-08T08:29:50.154Z,99049.13
2022-12-08T08:32:17.593Z,99057.22
2022-12-08T08:34:45.072Z,99056.72
2022-12-08T08:37:12.569Z,99054.81
2022-12-08T08:39:40.054Z,99062.16
2022-12-08T08:42:07.502Z,99053.56
2022-12-08T08:44:37.535Z,99066.22
2022-12-08T08:47:04.970Z,99060.59
2022-12-08T08:49:32.577Z,99062.38
2022-12-08T08:51:59.986Z,99062.75
2022-12-08T08:54:29.534Z,99067.91
2022-12-08T08:56:58.159Z,99063.78
2022-12-08T08:59:25.735Z,99070.84
2022-12-08T09:01:55.026Z,99069.00
2022-12-08T09:04:22.832Z,99067.38
2022-12-08T09:06:50.447Z,99071.38
2022-12-08T09:09:17.938Z,99067.53
2022-12-08T09:11:45.507Z,99069.63
2022-12-08T09:14:14.491Z,99058.69
2022-12-08T09:16:42.681Z,99065.84
2022-12-08T09:19:13.504Z,99074.63
2022-12-08T09:21:41.356Z,99072.88
2022-12-08T09:24:10.455Z,99070.59
2022-12-08T09:26:37.903Z,99076.03
2022-12-08T09:29:05.391Z,99083.59
2022-12-08T09:31:32.971Z,99086.72
2022-12-08T09:34:00.595Z,99081.22
2022-12-08T09:36:29.346Z,99074.44
2022-12-08T09:38:56.798Z,99079.38
2022-12-08T09:41:35.940Z,99081.19
2022-12-08T09:44:25.336Z,99081.63
2022-12-08T09:46:53.943Z,99082.09
2022-12-08T09:49:24.994Z,99085.63
2022-12-08T09:51:54.047Z,99079.31
2022-12-08T09:54:24.235Z,99075.75
2022-12-08T09:56:52.598Z,99077.28
2022-12-08T09:59:23.990Z,99081.03
2022-12-08T10:01:52.596Z,99073.38
2022-12-08T10:04:24.141Z,99079.00
2022-12-08T10:07:02.284Z,99083.56
2022-12-08T10:09:36.619Z,99075.16
2022-12-08T10:12:11.977Z,99081.50
2022-12-08T10:14:43.310Z,99079.53
2022-12-08T10:17:19.085Z,99077.53
2022-12-08T10:19:47.844Z,99071.63
2022-12-08T10:22:21.271Z,99074.06
2022-12-08T10:24:55.093Z,99070.41
2022-12-08T10:27:23.109Z,99072.06
2022-12-08T10:29:50.506Z,99062.28
2022-12-08T10:32:19.920Z,99062.75
2022-12-08T10:35:00.315Z,99062.16
2022-12-08T10:37:30.585Z,99061.88
2022-12-08T10:40:04.146Z,99057.78
2022-12-08T10:42:36.661Z,99055.34
2022-12-08T10:45:16.918Z,99057.81
2022-12-08T10:47:56.651Z,99054.09
2022-12-08T10:50:37.921Z,99049.19
2022-12-08T10:53:14.545Z,99050.00
2022-12-08T10:55:44.510Z,99051.75
2022-12-08T10:58:35.499Z,99045.72
2022-12-08T11:01:06.437Z,99053.63
2022-12-08T11:03:36.035Z,99047.19
2022-12-08T11:06:13.400Z,99049.69
2022-12-08T11:08:51.784Z,99050.19
2022-12-08T11:11:24.326Z,99048.22
2022-12-08T11:13:55.080Z,99050.00
2022-12-08T11:16:23.867Z,99063.59
2022-12-08T11:18:58.313Z,99056.41
2022-12-08T11:21:34.535Z,99044.56
2022-12-08T11:24:11.719Z,99049.16
2022-12-08T11:26:39.298Z,99049.81
2022-12-08T11:29:07.080Z,99046.91
2022-12-08T11:31:36.373Z,99047.13
2022-12-08T11:34:04.484Z,99039.88
2022-12-08T11:36:34.178Z,99052.03
2022-12-08T11:39:05.564Z,99045.91
2022-12-08T11:41:35.519Z,99042.50
2022-12-08T11:44:06.686Z,99041.03
2022-12-08T11:46:38.018Z,99041.34
2022-12-08T11:49:09.744Z,99027.34
2022-12-08T11:51:41.200Z,99031.31
2022-12-08T11:54:19.196Z,99026.19
2022-12-08T11:56:48.991Z,99031.81
2022-12-08T11:59:20.896Z,99032.97
2022-12-08T12:01:48.437Z,99028.53
2022-12-08T12:04:21.250Z,99031.16
2022-12-08T12:07:12.272Z,99024.41
2022-12-08T12:09:52.203Z,99024.44
2022-12-08T12:12:28.263Z,99027.38
2022-12-08T12:15:34.810Z,99029.00
2022-12-08T12:18:04.268Z,99032.97
2022-12-08T12:20:34.055Z,99033.63
2022-12-08T12:23:05.824Z,99029.19
2022-12-08T12:25:35.838Z,99025.88
2022-12-08T12:28:05.079Z,99021.59
2022-12-08T12:30:50.005Z,99028.84
2022-12-08T12:33:18.123Z,99021.94
2022-12-08T12:35:47.819Z,99030.03
2022-12-08T12:38:39.316Z,99021.94
2022-12-08T12:41:09.346Z,99021.28
2022-12-08T12:43:38.248Z,99032.47
2022-12-08T12:46:43.963Z,99027.84
2022-12-08T12:49:51.479Z,99023.22
2022-12-08T12:52:53.274Z,99032.63
2022-12-08T12:55:42.947Z,99027.84
2022-12-08T12:58:24.299Z,99032.75
2022-12-08T13:01:30.591Z,99036.22
2022-12-08T13:04:07.310Z,99039.34
2022-12-08T13:06:38.212Z,99036.03
2022-12-08T13:09:07.099Z,99039.16
2022-12-08T13:11:48.138Z,99041.91
2022-12-08T13:14:28.576Z,99037.63
2022-12-08T13:16:57.165Z,99034.31
2022-12-08T13:19:26.938Z,99032.03
2022-12-08T13:21:54.460Z,99033.16
2022-12-08T13:24:34.317Z,99038.84
2022-12-08T13:27:34.837Z,99035.75
2022-12-08T13:30:42.685Z,99028.16
2022-12-08T13:33:18.155Z,99035.25
2022-12-08T13:35:53.759Z,99032.16
2022-12-08T13:38:23.581Z,99028.53
2022-12-08T13:40:51.588Z,99033.28
2022-12-08T13:43:29.770Z,99027.06
2022-12-08T13:55:19.713Z,99032.97
2022-12-08T13:57:28.608Z,99030.97
2022-12-08T14:00:01.325Z,99034.13
2022-12-08T14:02:34.261Z,99041.56
2022-12-08T14:05:19.121Z,99039.63
2022-12-08T14:07:50.773Z,99038.09
2022-12-08T14:10:21.579Z,99038.41
2022-12-08T14:12:54.614Z,99032.41
2022-12-08T14:15:22.376Z,99035.31
2022-12-08T14:17:52.788Z,99034.16
2022-12-08T14:20:24.714Z,99034.50
2022-12-08T14:22:53.988Z,99038.63
2022-12-08T14:25:23.240Z,99044.06
2022-12-08T14:27:50.804Z,99043.88
2022-12-08T14:30:21.049Z,99043.47
2022-12-08T14:32:50.321Z,99028.97
2022-12-08T14:35:23.530Z,99032.19
2022-12-08T14:37:54.139Z,99032.06
2022-12-08T14:40:24.638Z,99035.28
2022-12-08T14:42:55.260Z,99027.91
2022-12-08T14:45:22.839Z,99026.31
2022-12-08T14:47:51.048Z,99028.22
2022-12-08T14:50:38.022Z,99035.75
2022-12-08T14:53:14.318Z,99037.38
2022-12-08T14:55:41.859Z,99037.56
2022-12-08T14:58:18.191Z,99042.88
2022-12-08T15:00:47.252Z,99045.69
2022-12-08T15:03:16.663Z,99040.78
2022-12-08T15:05:44.287Z,99039.66
2022-12-08T15:08:13.708Z,99038.69
2022-12-08T15:10:47.923Z,99042.28
2022-12-08T15:13:23.391Z,99041.16
2022-12-08T15:15:52.618Z,99038.94
2022-12-08T15:18:22.138Z,99039.31
2022-12-08T15:20:51.427Z,99039.81
2022-12-08T15:23:23.473Z,99050.47
2022-12-08T15:25:51.251Z,99050.94
2022-12-08T15:28:22.009Z,99040.56
2022-12-08T15:30:50.531Z,99042.81
2022-12-08T15:33:18.042Z,99046.34
2022-12-08T15:35:45.691Z,99050.72
2022-12-08T15:38:20.484Z,99049.25
2022-12-08T15:40:49.405Z,99039.97
2022-12-08T15:43:17.024Z,99051.22
2022-12-08T15:45:57.522Z,99058.19
2022-12-08T15:48:27.903Z,99049.06
2022-12-08T15:50:55.991Z,99056.13
2022-12-08T15:53:23.481Z,99050.09
2022-12-08T15:56:25.638Z,99053.94
2022-12-08T15:58:57.038Z,99051.31
2022-12-08T16:01:25.497Z,99052.50
2022-12-08T16:04:36.885Z,99054.81
2022-12-08T16:09:32.045Z,99056.41
2022-12-08T16:12:18.525Z,99061.06
2022-12-08T16:17:34.279Z,99064.94
2022-12-08T16:20:02.249Z,99056.13
2022-12-08T16:25:20.623Z,99061.50
2022-12-08T16:28:03.196Z,99053.09
2022-12-08T16:30:36.208Z,99054.53
2022-12-08T16:33:03.609Z,99058.16
2022-12-08T16:35:31.154Z,99064.00
2022-12-08T16:37:58.950Z,99065.09
2022-12-08T16:40:26.454Z,99074.50
2022-12-08T16:42:54.260Z,99079.91
2022-12-08T16:45:23.685Z,99079.41
2022-12-08T16:47:52.788Z,99072.19
2022-12-08T16:50:22.737Z,99079.13
2022-12-08T16:52:51.147Z,99079.69
2022-12-08T16:55:20.096Z,99079.25
2022-12-08T16:57:47.885Z,99077.88
2022-12-08T17:00:18.676Z,99080.22
2022-12-08T17:02:46.425Z,99077.59
2022-12-08T17:05:15.066Z,99085.19
2022-12-08T17:07:43.170Z,99089.16
2022-12-08T17:10:12.824Z,99082.66
2022-12-08T17:12:40.351Z,99083.78
2022-12-08T17:15:09.495Z,99071.47
2022-12-08T17:17:39.332Z,99084.66
2022-12-08T17:20:09.480Z,99084.22
2022-12-08T17:22:37.494Z,99087.91
2022-12-08T17:25:06.228Z,99088.06
2022-12-08T17:27:33.900Z,99084.53
2022-12-08T17:30:01.395Z,99079.56
2022-12-08T17:32:28.866Z,99084.84
2022-12-08T17:34:57.641Z,99086.41
2022-12-08T17:37:25.059Z,99083.88
2022-12-08T17:39:52.623Z,99080.25
2022-12-08T17:42:20.321Z,99083.28
2022-12-08T17:44:47.823Z,99079.34
2022-12-08T17:47:15.242Z,99080.84
2022-12-08T17:49:42.659Z,99079.91
2022-12-08T17:52:12.455Z,99081.69
2022-12-08T17:54:39.907Z,99085.97
2022-12-08T17:57:07.360Z,99089.75
2022-12-08T17:59:34.798Z,99096.56
2022-12-08T18:02:02.394Z,99095.00
2022-12-08T18:04:29.895Z,99081.38
2022-12-08T18:06:59.232Z,99080.44
2022-12-08T18:09:28.070Z,99084.00
2022-12-08T18:11:55.533Z,99089.97
2022-12-08T18:14:22.989Z,99089.63
2022-12-08T18:16:51.467Z,99086.31
2022-12-08T18:19:19.043Z,99086.47
2022-12-08T18:21:46.466Z,99085.19
2022-12-08T18:24:17.693Z,99085.50
2022-12-08T18:26:46.685Z,99080.84
2022-12-08T18:29:14.182Z,99087.19
2022-12-08T18:31:41.599Z,99080.69
2022-12-08T18:34:09.102Z,99078.66
2022-12-08T18:36:36.716Z,99082.72
2022-12-08T18:39:10.260Z,99082.25
2022-12-08T18:41:38.295Z,99082.03
2022-12-08T18:44:07.024Z,99077.03
2022-12-08T18:46:34.511Z,99083.00
2022-12-08T18:49:01.998Z,99088.75
2022-12-08T18:51:29.463Z,99091.38
2022-12-08T18:53:56.905Z,99088.59
2022-12-08T18:56:26.598Z,99086.56
2022-12-08T18:58:58.488Z,99089.78
2022-12-08T19:01:30.822Z,99083.91
2022-12-08T19:04:26.812Z,99079.44
2022-12-08T19:06:46.914Z,99083.16
2022-12-08T19:09:15.133Z,99087.81
2022-12-08T19:11:42.891Z,99088.16
2022-12-08T19:14:10.842Z,99087.56
2022-12-08T19:16:39.683Z,99093.50
2022-12-08T19:19:07.180Z,99097.00
2022-12-08T19:21:34.694Z,99095.00
2022-12-08T19:24:02.692Z,99098.16
2022-12-08T19:26:30.182Z,99104.53
2022-12-08T19:28:58.425Z,99099.78
2022-12-08T19:31:25.903Z,99101.91
2022-12-08T19:33:54.810Z,99093.56
2022-12-08T19:36:23.635Z,99090.44
2022-12-08T19:39:08.695Z,99082.25
2022-12-08T19:41:54.616Z,99090.97
2022-12-08T19:44:41.986Z,99089.47
2022-12-08T19:47:09.944Z,99098.34
2022-12-08T19:49:39.195Z,99094.94
2022-12-08T19:52:06.683Z,99093.19
2022-12-08T19:54:34.146Z,99093.41
2022-12-08T19:57:01.826Z,99096.53
2022-12-08T19:59:30.058Z,99095.25
2022-12-08T20:01:57.793Z,99088.00
2022-12-08T20:04:26.696Z,99087.34
2022-12-08T20:06:56.604Z,99101.03
2022-12-08T20:09:24.727Z,99103.00
2022-12-08T20:11:54.517Z,99102.34
2022-12-08T20:14:22.667Z,99097.47
2022-12-08T20:16:51.783Z,99099.91
2022-12-08T20:19:19.484Z,99107.34
2022-12-08T20:21:46.960Z,99109.16
2022-12-08T20:24:16.987Z,99108.63
2022-12-08T20:26:44.458Z,99111.94
2022-12-08T20:29:12.272Z,99110.97
2022-12-08T20:31:39.877Z,99123.16
2022-12-08T20:34:07.340Z,99113.84
2022-12-08T20:36:34.788Z,99112.47
2022-12-08T20:39:02.192Z,99106.00
2022-12-08T20:41:33.769Z,99108.47
2022-12-08T20:44:06.292Z,99101.50
2022-12-08T20:46:34.376Z,99108.09
2022-12-08T20:49:03.844Z,99114.81
2022-12-08T20:51:32.517Z,99117.00
2022-12-08T20:54:00.881Z,99123.47
2022-12-08T20:56:31.064Z,99120.72
2022-12-08T20:59:00.118Z,99121.75
2022-12-08T21:01:27.837Z,99117.16
2022-12-08T21:03:56.617Z,99116.91
2022-12-08T21:06:26.704Z,99122.69
2022-12-08T21:08:54.470Z,99114.13
2022-12-08T21:11:21.999Z,99116.69
2022-12-08T21:13:49.462Z,99124.19
2022-12-08T21:16:18.387Z,99124.84
2022-12-08T21:18:45.868Z,99119.91
2022-12-08T21:21:15.040Z,99123.66
2022-12-08T21:23:42.911Z,99133.81
2022-12-08T21:26:11.770Z,99125.22
2022-12-08T21:28:39.427Z,99124.63
2022-12-08T21:31:08.597Z,99119.53
2022-12-08T21:33:37.556Z,99121.25
2022-12-08T21:36:08.828Z,99132.16
2022-12-08T21:38:36.885Z,99121.88
2022-12-08T21:41:05.634Z,99121.16
2022-12-08T21:43:33.552Z,99121.81
2022-12-08T21:46:01.125Z,99120.66
2022-12-08T21:48:28.771Z,99118.19
2022-12-08T21:50:58.097Z,99125.41
2022-12-08T21:53:26.474Z,99117.81
2022-12-08T21:55:54.057Z,99119.91
2022-12-08T21:58:21.573Z,99120.75
2022-12-08T22:00:49.293Z,99131.41
2022-12-08T22:03:17.143Z,99126.06
2022-12-08T22:05:44.760Z,99134.63
2022-12-08T22:08:14.808Z,99126.44
2022-12-08T22:10:47.692Z,99127.22
2022-12-08T22:13:15.192Z,99130.34
2022-12-08T22:15:42.932Z,99128.03
2022-12-08T22:18:11.318Z,99125.97
2022-12-08T22:20:43.897Z,99127.91
2022-12-08T22:23:13.340Z,99108.94
2022-12-08T22:25:40.957Z,99108.59
2022-12-08T22:28:08.480Z,99111.09
2022-12-08T22:30:39.246Z,99107.03
2022-12-08T22:33:07.207Z,99105.84
2022-12-08T22:35:34.826Z,99109.09
2022-12-08T22:38:02.324Z,99109.81
2022-12-08T22:40:31.083Z,99105.16
2022-12-08T22:42:58.772Z,99101.63
2022-12-08T22:45:27.098Z,99104.84
2022-12-08T22:47:54.654Z,99102.91
2022-12-08T22:50:22.375Z,99102.34
2022-12-08T22:52:49.939Z,99109.41
2022-12-08T22:55:17.483Z,99115.31
2022-12-08T22:57:46.451Z,99105.13
2022-12-08T23:00:14.651Z,99104.56
2022-12-08T23:02:42.251Z,99100.44
2022-12-08T23:05:10.917Z,99105.94
2022-12-08T23:07:38.947Z,99100.44
2022-12-08T23:10:08.739Z,99105.94
2022-12-08T23:12:37.090Z,99106.91
2022-12-08T23:15:07.238Z,99099.16
2022-12-08T23:17:35.598Z,99105.50
2022-12-08T23:20:03.497Z,99100.09
2022-12-08T23:22:31.385Z,99101.59
2022-12-08T23:24:58.996Z,99107.97
2022-12-08T23:27:26.677Z,99104.66
2022-12-08T23:29:54.203Z,99103.44
2022-12-08T23:32:23.068Z,99105.34
2022-12-08T23:34:50.767Z,99102.22
2022-12-08T23:37:18.392Z,99105.22
2022-12-08T23:39:46.013Z,99110.19
2022-12-08T23:42:13.451Z,99098.25
2022-12-08T23:44:41.456Z,99106.63
2022-12-08T23:47:09.142Z,99111.59
2022-12-08T23:49:38.011Z,99105.25
2022-12-08T23:52:05.927Z,99109.34
2022-12-08T23:54:33.737Z,99105.31
2022-12-08T23:57:01.170Z,99103.53
2022-12-08T23:59:28.574Z,99101.84
